To NAV CANADA Home Page Login to a new session Search on AWWS site Feedback and Comments Disclaimer Vers la page française équivalente Tips FAQ What's new on the site To the Forecasts and Observations / NOTAM section To "File a Flight Plan" website Publications and other links Update of the User's profile FIC Telephone Numbers My Weather Data Folder Route Weather Data Regional Weather Data Local Weather Data To the Forecasts and Observations / NOTAM section
Request Generated 08/22/2017 at 03:29:47 UTC . Weather information available at that time is displayed.

METAR/TAF

EARLTON/EARLTON (TIMISKAMING REGIONAL)/ON    (show WxCam)

METAR CYXR 220300Z AUTO 15004KT 9SM OVC180 17/15 A2990 RMK SLP128
DENSITY ALT 1100FT=
METAR CYXR 220200Z AUTO 13005KT 9SM FEW240 17/15 A2993 RMK SLP138
DENSITY ALT 1100FT=
METAR CYXR 220100Z AUTO 14004KT 9SM CLR 19/17 A2994 RMK SLP142
DENSITY ALT 1400FT=

*** REMARK        : Forecast period has ended; this was the last TAF issued
*** REMARQUE : La période de prévision est échue; ceci était le dernier TAF qui a été émis
TAF CYXR 211739Z 2118/2124 30010G20KT P6SM SCT040 TEMPO 2118/2120
BKN040
BECMG 2122/2124 25005KT
RMK FCST BASED ON AUTO OBS. NXT FCST WILL BE ISSUED AT 221145Z=
Your time UTC time
Weather data provided by Environment Canada and NAV CANADA